sensor_id;sensor_type;location;lat;lon;timestamp;temperature;humidity
22706;DHT22;11520;51.198;4.468;2023-02-28T00:01:29;2.00;99.90
22706;DHT22;11520;51.198;4.468;2023-02-28T00:03:55;2.00;99.90
22706;DHT22;11520;51.198;4.468;2023-02-28T00:06:21;2.00;99.90
22706;DHT22;11520;51.198;4.468;2023-02-28T00:08:47;2.00;99.90
22706;DHT22;11520;51.198;4.468;2023-02-28T00:11:14;2.00;99.90
22706;DHT22;11520;51.198;4.468;2023-02-28T00:13:44;2.00;99.90
22706;DHT22;11520;51.198;4.468;2023-02-28T00:16:19;2.00;99.90
22706;DHT22;11520;51.198;4.468;2023-02-28T00:18:46;1.90;99.90
22706;DHT22;11520;51.198;4.468;2023-02-28T00:21:16;1.90;99.90
22706;DHT22;11520;51.198;4.468;2023-02-28T00:23:44;1.90;99.90
22706;DHT22;11520;51.198;4.468;2023-02-28T00:26:10;1.90;99.90
22706;DHT22;11520;51.198;4.468;2023-02-28T00:28:37;1.90;99.90
22706;DHT22;11520;51.198;4.468;2023-02-28T00:31:03;1.90;99.90
22706;DHT22;11520;51.198;4.468;2023-02-28T00:33:29;1.90;99.90
22706;DHT22;11520;51.198;4.468;2023-02-28T00:36:07;1.90;99.90
22706;DHT22;11520;51.198;4.468;2023-02-28T00:38:33;1.90;99.90
22706;DHT22;11520;51.198;4.468;2023-02-28T00:41:01;1.90;99.90
22706;DHT22;11520;51.198;4.468;2023-02-28T00:43:31;1.90;99.90
22706;DHT22;11520;51.198;4.468;2023-02-28T00:45:57;1.90;99.90
22706;DHT22;11520;51.198;4.468;2023-02-28T00:48:22;2.00;99.90
22706;DHT22;11520;51.198;4.468;2023-02-28T00:50:51;1.80;99.90
22706;DHT22;11520;51.198;4.468;2023-02-28T00:53:17;1.80;99.90
22706;DHT22;11520;51.198;4.468;2023-02-28T00:55:42;1.80;99.90
22706;DHT22;11520;51.198;4.468;2023-02-28T00:58:09;1.80;99.90
22706;DHT22;11520;51.198;4.468;2023-02-28T01:00:35;1.90;99.90
22706;DHT22;11520;51.198;4.468;2023-02-28T01:03:01;1.80;99.90
22706;DHT22;11520;51.198;4.468;2023-02-28T01:05:26;1.80;99.90
22706;DHT22;11520;51.198;4.468;2023-02-28T01:07:52;1.80;99.90
22706;DHT22;11520;51.198;4.468;2023-02-28T01:10:18;1.80;99.90
22706;DHT22;11520;51.198;4.468;2023-02-28T01:12:43;1.80;99.90
22706;DHT22;11520;51.198;4.468;2023-02-28T01:15:10;1.70;99.90
22706;DHT22;11520;51.198;4.468;2023-02-28T01:17:36;1.70;99.90
22706;DHT22;11520;51.198;4.468;2023-02-28T01:20:02;1.70;99.90
22706;DHT22;11520;51.198;4.468;2023-02-28T01:22:28;1.70;99.90
22706;DHT22;11520;51.198;4.468;2023-02-28T01:24:55;1.70;99.90
22706;DHT22;11520;51.198;4.468;2023-02-28T01:27:21;1.70;99.90
22706;DHT22;11520;51.198;4.468;2023-02-28T01:29:47;1.60;99.90
22706;DHT22;11520;51.198;4.468;2023-02-28T01:32:13;1.70;99.90
22706;DHT22;11520;51.198;4.468;2023-02-28T01:34:38;1.70;99.90
22706;DHT22;11520;51.198;4.468;2023-02-28T01:37:04;1.60;99.90
22706;DHT22;11520;51.198;4.468;2023-02-28T01:39:32;1.70;99.90
22706;DHT22;11520;51.198;4.468;2023-02-28T01:42:00;1.60;99.90
22706;DHT22;11520;51.198;4.468;2023-02-28T01:47:22;1.60;99.90
22706;DHT22;11520;51.198;4.468;2023-02-28T01:49:50;1.60;99.90
22706;DHT22;11520;51.198;4.468;2023-02-28T01:52:17;1.60;99.90
22706;DHT22;11520;51.198;4.468;2023-02-28T01:54:48;1.50;99.90
22706;DHT22;11520;51.198;4.468;2023-02-28T01:57:20;1.50;99.90
22706;DHT22;11520;51.198;4.468;2023-02-28T02:00:00;1.50;99.90
22706;DHT22;11520;51.198;4.468;2023-02-28T02:02:30;1.50;99.90
22706;DHT22;11520;51.198;4.468;2023-02-28T02:05:06;1.50;99.90
22706;DHT22;11520;51.198;4.468;2023-02-28T02:07:35;1.50;99.90
22706;DHT22;11520;51.198;4.468;2023-02-28T02:10:18;1.50;99.90
22706;DHT22;11520;51.198;4.468;2023-02-28T02:13:00;1.50;99.90
22706;DHT22;11520;51.198;4.468;2023-02-28T02:16:23;1.50;99.90
22706;DHT22;11520;51.198;4.468;2023-02-28T02:18:40;1.50;99.90
22706;DHT22;11520;51.198;4.468;2023-02-28T02:34:57;1.30;99.90
22706;DHT22;11520;51.198;4.468;2023-02-28T02:37:49;1.30;99.90
22706;DHT22;11520;51.198;4.468;2023-02-28T02:40:20;1.30;99.90
22706;DHT22;11520;51.198;4.468;2023-02-28T02:43:02;1.30;99.90
22706;DHT22;11520;51.198;4.468;2023-02-28T02:45:52;1.30;99.90
22706;DHT22;11520;51.198;4.468;2023-02-28T02:48:20;1.30;99.90
22706;DHT22;11520;51.198;4.468;2023-02-28T02:50:50;1.30;99.90
22706;DHT22;11520;51.198;4.468;2023-02-28T02:53:19;1.40;99.90
22706;DHT22;11520;51.198;4.468;2023-02-28T02:55:48;1.30;99.90
22706;DHT22;11520;51.198;4.468;2023-02-28T02:58:22;1.30;99.90
22706;DHT22;11520;51.198;4.468;2023-02-28T03:00:57;1.30;99.90
22706;DHT22;11520;51.198;4.468;2023-02-28T03:03:23;1.30;99.90
22706;DHT22;11520;51.198;4.468;2023-02-28T03:05:56;1.30;99.90
22706;DHT22;11520;51.198;4.468;2023-02-28T03:08:22;1.30;99.90
22706;DHT22;11520;51.198;4.468;2023-02-28T03:10:51;1.40;99.90
22706;DHT22;11520;51.198;4.468;2023-02-28T03:13:45;1.40;99.90
22706;DHT22;11520;51.198;4.468;2023-02-28T03:27:21;1.20;99.90
22706;DHT22;11520;51.198;4.468;2023-02-28T03:30:01;1.20;99.90
22706;DHT22;11520;51.198;4.468;2023-02-28T03:32:53;1.20;99.90
22706;DHT22;11520;51.198;4.468;2023-02-28T03:35:30;1.20;99.90
22706;DHT22;11520;51.198;4.468;2023-02-28T03:38:10;1.30;99.90
22706;DHT22;11520;51.198;4.468;2023-02-28T03:40:43;1.30;99.90
22706;DHT22;11520;51.198;4.468;2023-02-28T03:43:17;1.30;99.90
22706;DHT22;11520;51.198;4.468;2023-02-28T03:45:44;1.30;99.90
22706;DHT22;11520;51.198;4.468;2023-02-28T03:48:39;1.30;99.90
22706;DHT22;11520;51.198;4.468;2023-02-28T03:51:08;1.30;99.90
22706;DHT22;11520;51.198;4.468;2023-02-28T03:53:39;1.40;99.90
22706;DHT22;11520;51.198;4.468;2023-02-28T03:56:19;1.50;99.90
22706;DHT22;11520;51.198;4.468;2023-02-28T04:01:45;1.70;99.90
22706;DHT22;11520;51.198;4.468;2023-02-28T04:04:15;1.80;99.90
22706;DHT22;11520;51.198;4.468;2023-02-28T04:06:42;1.80;99.90
22706;DHT22;11520;51.198;4.468;2023-02-28T04:09:11;1.90;99.90
22706;DHT22;11520;51.198;4.468;2023-02-28T04:11:43;1.90;99.90
22706;DHT22;11520;51.198;4.468;2023-02-28T04:14:11;2.10;99.90
22706;DHT22;11520;51.198;4.468;2023-02-28T04:16:39;2.10;99.90
22706;DHT22;11520;51.198;4.468;2023-02-28T04:19:06;2.10;99.90
22706;DHT22;11520;51.198;4.468;2023-02-28T04:21:34;2.00;99.90
22706;DHT22;11520;51.198;4.468;2023-02-28T04:24:00;2.00;99.90
22706;DHT22;11520;51.198;4.468;2023-02-28T04:26:33;1.90;99.90
22706;DHT22;11520;51.198;4.468;2023-02-28T04:29:00;1.90;99.90
22706;DHT22;11520;51.198;4.468;2023-02-28T04:31:26;1.80;99.90
22706;DHT22;11520;51.198;4.468;2023-02-28T04:33:51;1.80;99.90
22706;DHT22;11520;51.198;4.468;2023-02-28T04:36:18;1.80;99.90
22706;DHT22;11520;51.198;4.468;2023-02-28T04:38:44;1.90;99.90
22706;DHT22;11520;51.198;4.468;2023-02-28T04:41:11;2.00;99.90
22706;DHT22;11520;51.198;4.468;2023-02-28T04:43:36;2.00;99.90
22706;DHT22;11520;51.198;4.468;2023-02-28T04:46:04;2.10;99.90
22706;DHT22;11520;51.198;4.468;2023-02-28T04:48:32;2.10;99.90
22706;DHT22;11520;51.198;4.468;2023-02-28T04:51:07;2.20;99.90
22706;DHT22;11520;51.198;4.468;2023-02-28T04:53:34;2.30;99.90
22706;DHT22;11520;51.198;4.468;2023-02-28T04:56:03;2.30;99.90
22706;DHT22;11520;51.198;4.468;2023-02-28T04:58:30;2.40;99.90
22706;DHT22;11520;51.198;4.468;2023-02-28T05:01:06;2.30;99.90
22706;DHT22;11520;51.198;4.468;2023-02-28T05:03:39;2.40;99.90
22706;DHT22;11520;51.198;4.468;2023-02-28T05:06:08;2.40;99.90
22706;DHT22;11520;51.198;4.468;2023-02-28T05:08:34;2.50;99.90
22706;DHT22;11520;51.198;4.468;2023-02-28T05:11:01;2.60;99.90
22706;DHT22;11520;51.198;4.468;2023-02-28T05:13:29;2.60;99.90
22706;DHT22;11520;51.198;4.468;2023-02-28T05:15:55;2.50;99.90
22706;DHT22;11520;51.198;4.468;2023-02-28T05:18:21;2.50;99.90
22706;DHT22;11520;51.198;4.468;2023-02-28T05:20:47;2.60;99.90
22706;DHT22;11520;51.198;4.468;2023-02-28T05:23:14;2.60;99.90
22706;DHT22;11520;51.198;4.468;2023-02-28T05:25:40;2.50;99.90
22706;DHT22;11520;51.198;4.468;2023-02-28T05:28:07;2.50;99.90
22706;DHT22;11520;51.198;4.468;2023-02-28T05:30:33;2.60;99.90
22706;DHT22;11520;51.198;4.468;2023-02-28T05:32:59;2.70;99.90
22706;DHT22;11520;51.198;4.468;2023-02-28T05:35:25;2.80;99.90
22706;DHT22;11520;51.198;4.468;2023-02-28T05:37:51;2.90;99.90
22706;DHT22;11520;51.198;4.468;2023-02-28T05:40:18;2.90;99.90
22706;DHT22;11520;51.198;4.468;2023-02-28T05:42:47;3.00;99.90
22706;DHT22;11520;51.198;4.468;2023-02-28T05:45:13;2.90;99.90
22706;DHT22;11520;51.198;4.468;2023-02-28T05:47:41;2.80;99.90
22706;DHT22;11520;51.198;4.468;2023-02-28T05:50:13;2.80;99.90
22706;DHT22;11520;51.198;4.468;2023-02-28T05:52:39;2.70;99.90
22706;DHT22;11520;51.198;4.468;2023-02-28T05:55:05;2.70;99.90
22706;DHT22;11520;51.198;4.468;2023-02-28T05:57:30;2.80;99.90
22706;DHT22;11520;51.198;4.468;2023-02-28T05:59:58;2.70;99.90
22706;DHT22;11520;51.198;4.468;2023-02-28T06:02:24;2.70;99.90
22706;DHT22;11520;51.198;4.468;2023-02-28T06:04:50;2.70;99.90
22706;DHT22;11520;51.198;4.468;2023-02-28T06:07:17;2.80;99.90
22706;DHT22;11520;51.198;4.468;2023-02-28T06:09:43;2.60;99.90
22706;DHT22;11520;51.198;4.468;2023-02-28T06:12:11;2.70;99.90
22706;DHT22;11520;51.198;4.468;2023-02-28T06:14:38;2.60;99.90
22706;DHT22;11520;51.198;4.468;2023-02-28T06:17:06;2.50;99.90
22706;DHT22;11520;51.198;4.468;2023-02-28T06:19:32;2.50;99.90
22706;DHT22;11520;51.198;4.468;2023-02-28T06:21:57;2.50;99.90
22706;DHT22;11520;51.198;4.468;2023-02-28T06:24:26;2.50;99.90
22706;DHT22;11520;51.198;4.468;2023-02-28T06:26:57;2.60;99.90
22706;DHT22;11520;51.198;4.468;2023-02-28T06:29:30;2.50;99.90
22706;DHT22;11520;51.198;4.468;2023-02-28T06:31:58;2.60;99.90
22706;DHT22;11520;51.198;4.468;2023-02-28T06:34:24;2.70;99.90
22706;DHT22;11520;51.198;4.468;2023-02-28T06:36:51;2.90;99.90
22706;DHT22;11520;51.198;4.468;2023-02-28T06:39:17;3.00;99.90
22706;DHT22;11520;51.198;4.468;2023-02-28T06:41:42;3.00;99.90
22706;DHT22;11520;51.198;4.468;2023-02-28T06:44:16;2.90;99.90
22706;DHT22;11520;51.198;4.468;2023-02-28T06:46:43;3.00;99.90
22706;DHT22;11520;51.198;4.468;2023-02-28T06:49:11;3.00;99.90
22706;DHT22;11520;51.198;4.468;2023-02-28T06:51:39;3.10;99.90
22706;DHT22;11520;51.198;4.468;2023-02-28T06:54:07;3.00;99.90
22706;DHT22;11520;51.198;4.468;2023-02-28T06:56:36;3.00;99.90
22706;DHT22;11520;51.198;4.468;2023-02-28T06:59:02;3.10;99.90
22706;DHT22;11520;51.198;4.468;2023-02-28T07:01:30;3.10;99.90
22706;DHT22;11520;51.198;4.468;2023-02-28T07:03:57;3.00;99.90
22706;DHT22;11520;51.198;4.468;2023-02-28T07:06:23;3.20;99.90
22706;DHT22;11520;51.198;4.468;2023-02-28T07:08:51;3.20;99.90
22706;DHT22;11520;51.198;4.468;2023-02-28T07:11:19;3.30;99.90
22706;DHT22;11520;51.198;4.468;2023-02-28T07:13:46;3.20;99.90
22706;DHT22;11520;51.198;4.468;2023-02-28T07:16:14;3.20;99.90
22706;DHT22;11520;51.198;4.468;2023-02-28T07:18:39;3.20;99.90
22706;DHT22;11520;51.198;4.468;2023-02-28T07:21:08;3.20;99.90
22706;DHT22;11520;51.198;4.468;2023-02-28T07:23:34;3.20;99.90
22706;DHT22;11520;51.198;4.468;2023-02-28T07:26:02;3.30;99.90
22706;DHT22;11520;51.198;4.468;2023-02-28T07:28:28;3.30;99.90
22706;DHT22;11520;51.198;4.468;2023-02-28T07:30:55;3.30;99.90
22706;DHT22;11520;51.198;4.468;2023-02-28T07:33:21;3.40;99.90
22706;DHT22;11520;51.198;4.468;2023-02-28T07:35:46;3.60;99.90
22706;DHT22;11520;51.198;4.468;2023-02-28T07:38:13;3.60;99.90
22706;DHT22;11520;51.198;4.468;2023-02-28T07:40:40;3.60;99.90
22706;DHT22;11520;51.198;4.468;2023-02-28T07:43:06;3.50;99.90
22706;DHT22;11520;51.198;4.468;2023-02-28T07:45:33;3.50;99.90
22706;DHT22;11520;51.198;4.468;2023-02-28T07:48:01;3.60;99.90
22706;DHT22;11520;51.198;4.468;2023-02-28T07:50:26;3.50;99.90
22706;DHT22;11520;51.198;4.468;2023-02-28T07:52:57;3.60;99.90
22706;DHT22;11520;51.198;4.468;2023-02-28T07:55:23;3.60;99.90
22706;DHT22;11520;51.198;4.468;2023-02-28T07:57:50;3.50;99.90
22706;DHT22;11520;51.198;4.468;2023-02-28T08:00:18;3.50;99.90
22706;DHT22;11520;51.198;4.468;2023-02-28T08:02:45;3.60;99.90
22706;DHT22;11520;51.198;4.468;2023-02-28T08:05:10;3.60;99.90
22706;DHT22;11520;51.198;4.468;2023-02-28T08:07:39;3.90;99.90
22706;DHT22;11520;51.198;4.468;2023-02-28T08:10:05;4.00;99.90
22706;DHT22;11520;51.198;4.468;2023-02-28T08:12:33;3.90;99.90
22706;DHT22;11520;51.198;4.468;2023-02-28T08:15:00;3.80;99.90
22706;DHT22;11520;51.198;4.468;2023-02-28T08:17:26;3.90;99.90
22706;DHT22;11520;51.198;4.468;2023-02-28T08:19:52;4.10;99.90
22706;DHT22;11520;51.198;4.468;2023-02-28T08:22:18;4.10;99.90
22706;DHT22;11520;51.198;4.468;2023-02-28T08:24:45;4.00;99.90
22706;DHT22;11520;51.198;4.468;2023-02-28T08:27:10;4.10;99.90
22706;DHT22;11520;51.198;4.468;2023-02-28T08:29:37;4.20;99.90
22706;DHT22;11520;51.198;4.468;2023-02-28T08:32:05;4.40;99.90
22706;DHT22;11520;51.198;4.468;2023-02-28T08:34:31;4.20;99.90
22706;DHT22;11520;51.198;4.468;2023-02-28T08:36:58;4.30;99.90
22706;DHT22;11520;51.198;4.468;2023-02-28T08:39:24;4.50;99.90
22706;DHT22;11520;51.198;4.468;2023-02-28T08:41:49;4.60;99.90
22706;DHT22;11520;51.198;4.468;2023-02-28T08:44:15;4.50;99.90
22706;DHT22;11520;51.198;4.468;2023-02-28T08:46:40;4.40;99.90
22706;DHT22;11520;51.198;4.468;2023-02-28T08:49:09;4.30;99.90
22706;DHT22;11520;51.198;4.468;2023-02-28T08:51:38;4.40;99.90
22706;DHT22;11520;51.198;4.468;2023-02-28T08:54:04;4.40;99.90
22706;DHT22;11520;51.198;4.468;2023-02-28T08:56:30;4.50;99.90
22706;DHT22;11520;51.198;4.468;2023-02-28T08:58:57;4.40;99.90
22706;DHT22;11520;51.198;4.468;2023-02-28T09:01:26;4.60;99.90
22706;DHT22;11520;51.198;4.468;2023-02-28T09:03:55;4.80;99.90
22706;DHT22;11520;51.198;4.468;2023-02-28T09:06:24;5.30;99.90
22706;DHT22;11520;51.198;4.468;2023-02-28T09:08:50;5.90;99.90
22706;DHT22;11520;51.198;4.468;2023-02-28T09:11:17;5.60;99.90
22706;DHT22;11520;51.198;4.468;2023-02-28T09:13:45;5.50;99.90
22706;DHT22;11520;51.198;4.468;2023-02-28T09:16:13;5.20;99.90
22706;DHT22;11520;51.198;4.468;2023-02-28T09:18:40;5.40;99.90
22706;DHT22;11520;51.198;4.468;2023-02-28T09:21:08;5.70;99.90
22706;DHT22;11520;51.198;4.468;2023-02-28T09:23:36;6.30;99.90
22706;DHT22;11520;51.198;4.468;2023-02-28T09:26:07;6.60;99.90
22706;DHT22;11520;51.198;4.468;2023-02-28T09:28:32;6.60;99.90
22706;DHT22;11520;51.198;4.468;2023-02-28T09:30:58;7.10;99.90
22706;DHT22;11520;51.198;4.468;2023-02-28T09:33:25;7.50;99.90
22706;DHT22;11520;51.198;4.468;2023-02-28T09:35:57;8.30;99.90
22706;DHT22;11520;51.198;4.468;2023-02-28T09:38:22;8.40;99.90
22706;DHT22;11520;51.198;4.468;2023-02-28T09:40:55;8.10;99.90
22706;DHT22;11520;51.198;4.468;2023-02-28T09:43:23;8.10;99.90
22706;DHT22;11520;51.198;4.468;2023-02-28T09:46:08;8.50;99.90
22706;DHT22;11520;51.198;4.468;2023-02-28T09:48:41;8.40;98.10
22706;DHT22;11520;51.198;4.468;2023-02-28T09:53:54;7.90;97.40
22706;DHT22;11520;51.198;4.468;2023-02-28T09:56:28;8.20;96.30
22706;DHT22;11520;51.198;4.468;2023-02-28T10:05:00;7.50;96.90
22706;DHT22;11520;51.198;4.468;2023-02-28T10:07:42;8.20;96.20
22706;DHT22;11520;51.198;4.468;2023-02-28T10:10:23;8.90;94.70
22706;DHT22;11520;51.198;4.468;2023-02-28T10:12:53;9.70;92.60
22706;DHT22;11520;51.198;4.468;2023-02-28T10:15:23;9.60;90.20
22706;DHT22;11520;51.198;4.468;2023-02-28T10:17:57;9.50;90.50
22706;DHT22;11520;51.198;4.468;2023-02-28T10:20:33;9.50;89.60
22706;DHT22;11520;51.198;4.468;2023-02-28T10:23:20;9.50;89.50
22706;DHT22;11520;51.198;4.468;2023-02-28T10:25:55;10.00;86.80
22706;DHT22;11520;51.198;4.468;2023-02-28T10:28:22;9.30;86.00
22706;DHT22;11520;51.198;4.468;2023-02-28T10:30:52;8.80;88.70
22706;DHT22;11520;51.198;4.468;2023-02-28T10:33:33;9.00;87.90
22706;DHT22;11520;51.198;4.468;2023-02-28T10:36:04;8.70;86.00
22706;DHT22;11520;51.198;4.468;2023-02-28T10:38:33;8.40;86.10
22706;DHT22;11520;51.198;4.468;2023-02-28T10:43:30;9.80;85.40
22706;DHT22;11520;51.198;4.468;2023-02-28T10:48:46;10.30;79.00
22706;DHT22;11520;51.198;4.468;2023-02-28T10:51:18;9.80;79.70
22706;DHT22;11520;51.198;4.468;2023-02-28T10:53:54;8.70;78.50
22706;DHT22;11520;51.198;4.468;2023-02-28T10:56:23;8.90;79.70
22706;DHT22;11520;51.198;4.468;2023-02-28T10:59:03;9.50;77.90
22706;DHT22;11520;51.198;4.468;2023-02-28T11:01:50;8.80;75.80
22706;DHT22;11520;51.198;4.468;2023-02-28T11:07:20;8.90;75.70
22706;DHT22;11520;51.198;4.468;2023-02-28T11:09:52;9.20;75.90
22706;DHT22;11520;51.198;4.468;2023-02-28T11:14:52;8.60;73.90
22706;DHT22;11520;51.198;4.468;2023-02-28T11:17:22;9.20;74.20
22706;DHT22;11520;51.198;4.468;2023-02-28T11:20:06;9.60;71.40
22706;DHT22;11520;51.198;4.468;2023-02-28T11:22:39;9.80;69.00
22706;DHT22;11520;51.198;4.468;2023-02-28T11:25:29;9.10;70.50
22706;DHT22;11520;51.198;4.468;2023-02-28T11:28:00;9.10;72.10
22706;DHT22;11520;51.198;4.468;2023-02-28T11:30:31;9.20;71.90
22706;DHT22;11520;51.198;4.468;2023-02-28T11:32:58;9.40;70.80
22706;DHT22;11520;51.198;4.468;2023-02-28T11:35:33;8.70;70.30
22706;DHT22;11520;51.198;4.468;2023-02-28T11:38:01;8.50;72.30
22706;DHT22;11520;51.198;4.468;2023-02-28T11:40:43;9.30;73.40
22706;DHT22;11520;51.198;4.468;2023-02-28T11:43:23;10.10;69.00
22706;DHT22;11520;51.198;4.468;2023-02-28T11:51:27;11.20;68.20
22706;DHT22;11520;51.198;4.468;2023-02-28T11:56:55;9.50;62.80
22706;DHT22;11520;51.198;4.468;2023-02-28T12:00:24;9.00;66.40
22706;DHT22;11520;51.198;4.468;2023-02-28T12:11:54;8.90;64.70
22706;DHT22;11520;51.198;4.468;2023-02-28T12:28:44;7.70;71.50
22706;DHT22;11520;51.198;4.468;2023-02-28T12:31:24;7.80;70.70
22706;DHT22;11520;51.198;4.468;2023-02-28T12:33:56;7.80;70.60
22706;DHT22;11520;51.198;4.468;2023-02-28T12:36:24;8.00;70.80
22706;DHT22;11520;51.198;4.468;2023-02-28T12:44:20;8.30;72.60
22706;DHT22;11520;51.198;4.468;2023-02-28T12:46:50;8.10;70.70
22706;DHT22;11520;51.198;4.468;2023-02-28T12:49:39;8.10;72.80
22706;DHT22;11520;51.198;4.468;2023-02-28T12:52:10;8.10;70.50
22706;DHT22;11520;51.198;4.468;2023-02-28T12:54:55;8.10;70.50
22706;DHT22;11520;51.198;4.468;2023-02-28T12:58:38;8.60;70.30
22706;DHT22;11520;51.198;4.468;2023-02-28T13:00:36;8.30;69.80
22706;DHT22;11520;51.198;4.468;2023-02-28T13:03:37;7.80;72.40
22706;DHT22;11520;51.198;4.468;2023-02-28T13:06:12;7.90;71.90
22706;DHT22;11520;51.198;4.468;2023-02-28T13:09:01;7.70;73.00
22706;DHT22;11520;51.198;4.468;2023-02-28T13:11:47;7.70;73.00
22706;DHT22;11520;51.198;4.468;2023-02-28T13:14:24;7.90;72.60
22706;DHT22;11520;51.198;4.468;2023-02-28T13:19:55;8.10;74.30
22706;DHT22;11520;51.198;4.468;2023-02-28T13:22:43;7.80;71.90
22706;DHT22;11520;51.198;4.468;2023-02-28T13:27:52;7.40;74.00
22706;DHT22;11520;51.198;4.468;2023-02-28T13:38:45;6.90;75.50
22706;DHT22;11520;51.198;4.468;2023-02-28T14:00:17;6.80;78.60
22706;DHT22;11520;51.198;4.468;2023-02-28T14:05:17;6.70;79.60
22706;DHT22;11520;51.198;4.468;2023-02-28T14:07:57;6.60;79.10
22706;DHT22;11520;51.198;4.468;2023-02-28T14:10:41;6.60;79.20
22706;DHT22;11520;51.198;4.468;2023-02-28T14:13:37;6.50;79.10
22706;DHT22;11520;51.198;4.468;2023-02-28T14:16:13;6.40;79.80
22706;DHT22;11520;51.198;4.468;2023-02-28T14:18:58;6.50;80.10
22706;DHT22;11520;51.198;4.468;2023-02-28T14:21:36;6.60;80.80
22706;DHT22;11520;51.198;4.468;2023-02-28T14:27:11;6.30;82.50
22706;DHT22;11520;51.198;4.468;2023-02-28T14:35:39;6.40;83.20
22706;DHT22;11520;51.198;4.468;2023-02-28T14:38:07;6.50;82.40
22706;DHT22;11520;51.198;4.468;2023-02-28T14:40:38;6.40;82.60
22706;DHT22;11520;51.198;4.468;2023-02-28T14:43:18;6.40;82.00
22706;DHT22;11520;51.198;4.468;2023-02-28T14:45:50;6.40;82.30
22706;DHT22;11520;51.198;4.468;2023-02-28T14:48:18;6.30;83.00
22706;DHT22;11520;51.198;4.468;2023-02-28T14:50:50;6.20;82.90
22706;DHT22;11520;51.198;4.468;2023-02-28T14:53:18;6.30;84.00
22706;DHT22;11520;51.198;4.468;2023-02-28T14:55:47;6.40;84.00
22706;DHT22;11520;51.198;4.468;2023-02-28T14:58:25;6.40;83.90
22706;DHT22;11520;51.198;4.468;2023-02-28T15:00:53;6.50;85.10
22706;DHT22;11520;51.198;4.468;2023-02-28T15:06:01;6.50;85.30
22706;DHT22;11520;51.198;4.468;2023-02-28T15:08:30;6.50;84.60
22706;DHT22;11520;51.198;4.468;2023-02-28T15:11:11;6.50;84.70
22706;DHT22;11520;51.198;4.468;2023-02-28T15:13:48;6.40;84.00
22706;DHT22;11520;51.198;4.468;2023-02-28T15:16:28;6.40;84.70
22706;DHT22;11520;51.198;4.468;2023-02-28T15:24:03;6.40;84.00
22706;DHT22;11520;51.198;4.468;2023-02-28T15:26:35;6.30;84.60
22706;DHT22;11520;51.198;4.468;2023-02-28T15:29:10;6.30;85.20
22706;DHT22;11520;51.198;4.468;2023-02-28T15:31:44;6.30;85.00
22706;DHT22;11520;51.198;4.468;2023-02-28T15:34:18;6.30;84.90
22706;DHT22;11520;51.198;4.468;2023-02-28T15:36:44;6.30;85.80
22706;DHT22;11520;51.198;4.468;2023-02-28T15:39:25;6.30;85.70
22706;DHT22;11520;51.198;4.468;2023-02-28T15:42:09;6.40;85.80
22706;DHT22;11520;51.198;4.468;2023-02-28T15:44:37;6.30;86.20
22706;DHT22;11520;51.198;4.468;2023-02-28T15:47:14;6.20;86.40
22706;DHT22;11520;51.198;4.468;2023-02-28T15:50:01;6.20;86.60
22706;DHT22;11520;51.198;4.468;2023-02-28T15:52:53;6.10;87.20
22706;DHT22;11520;51.198;4.468;2023-02-28T15:55:22;6.20;86.80
22706;DHT22;11520;51.198;4.468;2023-02-28T15:57:54;6.20;87.30
22706;DHT22;11520;51.198;4.468;2023-02-28T16:00:23;6.20;87.80
22706;DHT22;11520;51.198;4.468;2023-02-28T16:02:49;6.20;87.20
22706;DHT22;11520;51.198;4.468;2023-02-28T16:05:27;6.20;88.10
22706;DHT22;11520;51.198;4.468;2023-02-28T16:07:55;6.20;87.60
22706;DHT22;11520;51.198;4.468;2023-02-28T16:10:21;6.20;88.00
22706;DHT22;11520;51.198;4.468;2023-02-28T16:12:54;6.10;88.20
22706;DHT22;11520;51.198;4.468;2023-02-28T16:15:27;6.10;88.40
22706;DHT22;11520;51.198;4.468;2023-02-28T16:17:56;6.00;88.20
22706;DHT22;11520;51.198;4.468;2023-02-28T16:20:26;6.00;88.60
22706;DHT22;11520;51.198;4.468;2023-02-28T16:22:53;5.90;88.40
22706;DHT22;11520;51.198;4.468;2023-02-28T16:25:23;5.90;88.30
22706;DHT22;11520;51.198;4.468;2023-02-28T16:27:52;5.90;88.90
22706;DHT22;11520;51.198;4.468;2023-02-28T16:30:27;5.90;89.00
22706;DHT22;11520;51.198;4.468;2023-02-28T16:32:56;5.90;89.40
22706;DHT22;11520;51.198;4.468;2023-02-28T16:35:25;5.90;89.60
22706;DHT22;11520;51.198;4.468;2023-02-28T16:37:54;5.90;89.90
22706;DHT22;11520;51.198;4.468;2023-02-28T16:40:23;5.90;90.20
22706;DHT22;11520;51.198;4.468;2023-02-28T16:42:51;5.80;90.40
22706;DHT22;11520;51.198;4.468;2023-02-28T16:45:21;5.80;90.50
22706;DHT22;11520;51.198;4.468;2023-02-28T16:47:47;5.70;90.60
22706;DHT22;11520;51.198;4.468;2023-02-28T16:50:21;5.80;90.80
22706;DHT22;11520;51.198;4.468;2023-02-28T16:52:50;5.70;90.80
22706;DHT22;11520;51.198;4.468;2023-02-28T16:55:24;5.70;90.90
22706;DHT22;11520;51.198;4.468;2023-02-28T16:57:51;5.60;91.20
22706;DHT22;11520;51.198;4.468;2023-02-28T17:00:18;5.60;91.60
22706;DHT22;11520;51.198;4.468;2023-02-28T17:02:44;5.60;91.80
22706;DHT22;11520;51.198;4.468;2023-02-28T17:05:13;5.50;92.00
22706;DHT22;11520;51.198;4.468;2023-02-28T17:07:43;5.50;92.10
22706;DHT22;11520;51.198;4.468;2023-02-28T17:10:17;5.50;92.30
22706;DHT22;11520;51.198;4.468;2023-02-28T17:12:43;5.50;92.70
22706;DHT22;11520;51.198;4.468;2023-02-28T17:15:10;5.40;92.70
22706;DHT22;11520;51.198;4.468;2023-02-28T17:17:36;5.40;92.40
22706;DHT22;11520;51.198;4.468;2023-02-28T17:20:04;5.30;92.60
22706;DHT22;11520;51.198;4.468;2023-02-28T17:22:33;5.30;93.00
22706;DHT22;11520;51.198;4.468;2023-02-28T17:24:58;5.30;93.10
22706;DHT22;11520;51.198;4.468;2023-02-28T17:27:25;5.20;93.20
22706;DHT22;11520;51.198;4.468;2023-02-28T17:29:51;5.20;93.40
22706;DHT22;11520;51.198;4.468;2023-02-28T17:32:23;5.10;93.50
22706;DHT22;11520;51.198;4.468;2023-02-28T17:34:50;5.10;93.80
22706;DHT22;11520;51.198;4.468;2023-02-28T17:37:17;5.10;94.30
22706;DHT22;11520;51.198;4.468;2023-02-28T17:39:43;5.10;94.20
22706;DHT22;11520;51.198;4.468;2023-02-28T17:42:09;5.10;94.10
22706;DHT22;11520;51.198;4.468;2023-02-28T17:44:35;5.00;94.80
22706;DHT22;11520;51.198;4.468;2023-02-28T17:47:03;4.90;94.50
22706;DHT22;11520;51.198;4.468;2023-02-28T17:49:30;4.90;95.10
22706;DHT22;11520;51.198;4.468;2023-02-28T17:51:58;4.90;95.30
22706;DHT22;11520;51.198;4.468;2023-02-28T17:54:24;4.90;95.50
22706;DHT22;11520;51.198;4.468;2023-02-28T17:56:51;4.90;95.50
22706;DHT22;11520;51.198;4.468;2023-02-28T17:59:17;4.90;95.70
22706;DHT22;11520;51.198;4.468;2023-02-28T18:01:46;4.90;95.90
22706;DHT22;11520;51.198;4.468;2023-02-28T18:04:12;4.80;96.10
22706;DHT22;11520;51.198;4.468;2023-02-28T18:06:40;4.80;96.00
22706;DHT22;11520;51.198;4.468;2023-02-28T18:09:20;4.80;96.50
22706;DHT22;11520;51.198;4.468;2023-02-28T18:11:54;4.80;96.50
22706;DHT22;11520;51.198;4.468;2023-02-28T18:14:24;4.70;96.90
22706;DHT22;11520;51.198;4.468;2023-02-28T18:16:51;4.80;96.80
22706;DHT22;11520;51.198;4.468;2023-02-28T18:19:20;4.80;96.80
22706;DHT22;11520;51.198;4.468;2023-02-28T18:21:49;4.70;96.90
22706;DHT22;11520;51.198;4.468;2023-02-28T18:24:18;4.70;97.10
22706;DHT22;11520;51.198;4.468;2023-02-28T18:26:44;4.70;97.30